Time;durP1;ratioP1;P1;durP2;ratioP2;P2;SDS_P1;SDS_P2;PMS_P1;PMS_P2;Temp;Humidity;BMP_temperature;BMP_pressure;BME280_temperature;BME280_humidity;BME280_pressure;Samples;Min_cycle;Max_cycle;Signal;HPM_P1;HPM_P2
2021/12/30 00:01:28;;;;;;;0.93;0.93;;;12.40;99.90;;;12.72;100.00;100390.50;4953336;28;20614;-70
2021/12/30 00:03:56;;;;;;;1.60;0.90;;;12.40;99.90;;;12.70;100.00;100388.97;4970699;28;20682;-71
2021/12/30 00:06:23;;;;;;;0.57;0.57;;;12.40;99.90;;;12.72;100.00;100390.50;4955233;28;20633;-70
2021/12/30 00:08:53;;;;;;;0.80;0.80;;;12.40;99.90;;;12.73;100.00;100397.41;4971517;28;20734;-73
2021/12/30 00:11:21;;;;;;;0.60;0.60;;;12.40;99.90;;;12.75;100.00;100399.91;4955232;28;21245;-69
2021/12/30 00:13:48;;;;;;;0.57;0.57;;;12.40;99.90;;;12.75;100.00;100407.75;4955650;28;21016;-72
2021/12/30 00:16:18;;;;;;;0.67;0.67;;;12.40;99.90;;;12.83;100.00;100408.78;4950673;29;20632;-72
2021/12/30 00:18:46;;;;;;;1.10;1.10;;;12.60;99.90;;;12.85;100.00;100417.31;4959275;28;20635;-71
2021/12/30 00:21:13;;;;;;;0.60;0.60;;;12.60;99.90;;;12.87;100.00;100425.03;4939827;28;20686;-69
2021/12/30 00:23:41;;;;;;;0.70;0.70;;;12.60;99.90;;;12.90;100.00;100424.78;4954797;28;21079;-69
2021/12/30 00:26:08;;;;;;;1.23;0.90;;;12.60;99.90;;;12.93;100.00;100437.59;4967660;28;21237;-72
2021/12/30 00:28:35;;;;;;;2.10;0.80;;;12.60;99.90;;;12.91;100.00;100448.22;4953196;29;21123;-72
2021/12/30 00:31:03;;;;;;;0.70;0.70;;;12.60;99.90;;;12.88;100.00;100453.72;4964043;28;20675;-69
2021/12/30 00:33:34;;;;;;;0.60;0.60;;;12.50;99.90;;;12.85;100.00;100451.34;4949660;28;20658;-71
2021/12/30 00:36:06;;;;;;;0.60;0.60;;;12.50;99.90;;;12.82;100.00;100459.47;4955730;28;20619;-72
2021/12/30 00:38:35;;;;;;;0.60;0.60;;;12.50;99.90;;;12.82;100.00;100462.06;4965430;28;20599;-71
2021/12/30 00:41:02;;;;;;;1.80;0.50;;;12.50;99.90;;;12.84;100.00;100467.22;4954016;28;20674;-70
2021/12/30 00:43:29;;;;;;;0.70;0.70;;;12.50;99.90;;;12.89;100.00;100458.00;4968617;23;21155;-69
2021/12/30 00:45:56;;;;;;;1.60;0.70;;;12.60;99.90;;;12.92;100.00;100454.28;4972371;28;20635;-69
2021/12/30 00:48:23;;;;;;;1.47;0.70;;;12.60;99.90;;;12.88;100.00;100455.50;4975200;28;20733;-69
2021/12/30 00:50:50;;;;;;;0.60;0.60;;;12.50;99.90;;;12.91;100.00;100457.84;4979069;28;20663;-69
2021/12/30 00:53:17;;;;;;;0.73;0.60;;;12.60;99.90;;;12.92;100.00;100475.25;4968532;28;20666;-69
2021/12/30 00:55:45;;;;;;;0.50;0.50;;;12.60;99.90;;;12.96;100.00;100482.72;4954978;29;20608;-69
2021/12/30 00:58:12;;;;;;;0.40;0.40;;;12.70;99.90;;;12.91;100.00;100481.44;4936596;29;20636;-67
2021/12/30 01:00:42;;;;;;;1.20;0.67;;;12.60;99.90;;;12.90;100.00;100491.09;4952707;29;20640;-67
2021/12/30 01:03:11;;;;;;;1.80;0.53;;;12.60;99.90;;;12.95;100.00;100506.41;4936618;28;20624;-67
2021/12/30 01:05:38;;;;;;;0.90;0.77;;;12.60;99.90;;;12.94;99.29;100496.91;4935510;29;20643;-67
2021/12/30 01:08:07;;;;;;;3.63;0.60;;;12.60;99.90;;;12.91;99.18;100497.97;4935313;28;20648;-66
2021/12/30 01:10:35;;;;;;;4.13;0.60;;;12.60;99.90;;;12.87;99.50;100490.50;4953549;28;20690;-67
2021/12/30 01:13:06;;;;;;;0.67;0.50;;;12.50;99.90;;;12.77;99.46;100505.31;4952640;28;21210;-66
2021/12/30 01:15:48;;;;;;;1.17;0.90;;;12.40;99.90;;;12.69;99.65;100505.13;4960770;28;20636;-68
2021/12/30 01:20:57;;;;;;;1.07;0.63;;;12.30;99.90;;;12.73;98.02;100522.25;4955790;28;20643;-66
2021/12/30 01:23:26;;;;;;;0.87;0.50;;;12.40;99.90;;;12.73;96.88;100520.47;4954146;28;20650;-67
2021/12/30 01:25:55;;;;;;;1.77;0.70;;;12.40;99.90;;;12.77;97.08;100536.75;4936240;29;20654;-66
2021/12/30 01:28:26;;;;;;;1.27;0.50;;;12.40;99.90;;;12.75;96.45;100546.50;4953498;29;21207;-66
2021/12/30 01:30:54;;;;;;;2.10;0.50;;;12.40;99.90;;;12.69;96.62;100547.00;4957281;28;20667;-66
2021/12/30 01:33:21;;;;;;;1.53;0.90;;;12.30;99.90;;;12.68;95.92;100561.03;4961440;28;20662;-66
2021/12/30 01:35:48;;;;;;;7.03;0.73;;;12.30;99.90;;;12.68;95.07;100567.13;4967214;28;20642;-66
2021/12/30 01:38:16;;;;;;;0.50;0.50;;;12.30;99.90;;;12.70;95.04;100578.28;4956571;28;20769;-67
2021/12/30 01:40:49;;;;;;;1.07;0.67;;;12.30;99.90;;;12.71;94.50;100579.13;4953630;29;20624;-67
2021/12/30 01:43:16;;;;;;;0.53;0.53;;;12.40;99.90;;;12.69;94.07;100587.09;4952706;28;20803;-67
2021/12/30 01:45:44;;;;;;;1.87;0.50;;;12.40;99.90;;;12.70;93.51;100583.53;4952559;29;20632;-66
2021/12/30 01:48:11;;;;;;;0.60;0.60;;;12.40;99.90;;;12.72;93.27;100591.25;4935438;29;20643;-66
2021/12/30 01:50:40;;;;;;;0.70;0.40;;;12.40;99.90;;;12.71;93.85;100587.81;4935239;29;20664;-67
2021/12/30 01:53:07;;;;;;;2.00;0.60;;;12.40;99.90;;;12.69;93.95;100592.31;4951765;28;21028;-66
2021/12/30 01:55:35;;;;;;;2.00;0.83;;;12.30;99.90;;;12.65;93.56;100583.06;4953502;29;20616;-66
2021/12/30 01:58:03;;;;;;;2.90;0.70;;;12.30;99.90;;;12.62;93.78;100585.09;4952055;29;21039;-66
2021/12/30 02:00:32;;;;;;;1.17;0.87;;;12.20;99.90;;;12.59;94.38;100582.72;4936031;29;20636;-66
2021/12/30 02:03:00;;;;;;;1.53;0.70;;;12.20;99.90;;;12.51;94.20;100591.22;4959455;28;21067;-66
2021/12/30 02:05:29;;;;;;;0.80;0.80;;;12.10;99.90;;;12.44;94.75;100585.63;4956471;28;20615;-66
2021/12/30 02:07:56;;;;;;;1.07;0.77;;;12.00;99.90;;;12.37;95.81;100583.66;4958746;28;21219;-67
2021/12/30 02:10:24;;;;;;;0.60;0.60;;;12.00;99.90;;;12.29;96.43;100584.25;4953430;29;20711;-66
2021/12/30 02:12:52;;;;;;;1.40;0.93;;;11.90;99.90;;;12.22;96.89;100590.09;4952683;28;20638;-67
2021/12/30 02:15:20;;;;;;;0.90;0.50;;;11.80;99.90;;;12.11;97.80;100583.09;4936880;29;20608;-67
2021/12/30 02:17:49;;;;;;;5.13;0.80;;;11.70;99.90;;;12.05;97.98;100590.59;4951118;29;21223;-65
2021/12/30 02:20:41;;;;;;;3.33;0.57;;;11.60;99.90;;;11.92;98.42;100595.13;4952324;29;21257;-67
2021/12/30 02:23:09;;;;;;;2.40;0.60;;;11.50;99.90;;;11.93;98.80;100594.16;4952667;28;20624;-67
2021/12/30 02:25:36;;;;;;;5.80;0.90;;;11.50;99.90;;;11.87;100.00;100598.09;4935139;29;20636;-66
2021/12/30 02:28:12;;;;;;;0.73;0.60;;;11.50;99.90;;;11.88;100.00;100599.75;4953576;29;20624;-67
2021/12/30 02:30:41;;;;;;;0.70;0.70;;;11.50;99.90;;;11.92;100.00;100609.03;4951743;28;20754;-67
2021/12/30 02:33:08;;;;;;;0.67;0.60;;;11.60;99.90;;;11.98;100.00;100605.94;4960150;28;20634;-66
2021/12/30 02:35:35;;;;;;;3.30;0.90;;;11.70;99.90;;;12.02;100.00;100594.28;4968643;28;20615;-67
2021/12/30 02:38:04;;;;;;;0.60;0.60;;;11.70;99.90;;;12.09;100.00;100602.47;4946890;28;20644;-66
2021/12/30 02:40:43;;;;;;;0.67;0.67;;;11.80;99.90;;;12.11;100.00;100604.03;4960110;28;20623;-69
2021/12/30 02:43:25;;;;;;;0.80;0.60;;;11.80;99.90;;;12.17;100.00;100598.31;4970113;28;20730;-69
2021/12/30 02:45:54;;;;;;;4.87;0.93;;;11.90;99.90;;;12.22;100.00;100603.97;4956659;28;20646;-69
2021/12/30 02:48:26;;;;;;;0.67;0.67;;;11.90;99.90;;;12.23;100.00;100604.81;4950456;29;20641;-66
2021/12/30 02:50:58;;;;;;;0.90;0.80;;;11.90;99.90;;;12.25;100.00;100606.38;4951641;29;20668;-67
2021/12/30 02:53:26;;;;;;;0.63;0.63;;;11.90;99.90;;;12.28;100.00;100613.16;4951319;28;20753;-68
2021/12/30 02:55:54;;;;;;;0.73;0.73;;;11.90;99.90;;;12.29;100.00;100622.66;4952576;29;20613;-66
2021/12/30 02:58:23;;;;;;;8.00;1.10;;;12.00;99.90;;;12.34;100.00;100628.34;4932577;29;21241;-66
2021/12/30 03:01:11;;;;;;;0.60;0.60;;;12.00;99.90;;;12.35;100.00;100628.22;4932291;29;20731;-67
2021/12/30 03:03:39;;;;;;;4.23;1.23;;;12.00;99.90;;;12.40;100.00;100631.31;4956663;28;20643;-66
2021/12/30 03:06:09;;;;;;;1.00;1.00;;;12.10;99.90;;;12.43;100.00;100631.09;4953225;28;20628;-67
2021/12/30 03:08:36;;;;;;;4.67;0.77;;;12.10;99.90;;;12.48;100.00;100629.88;4938476;29;20626;-67
2021/12/30 03:11:05;;;;;;;0.90;0.70;;;12.20;99.90;;;12.50;100.00;100634.03;4937363;29;20663;-66
2021/12/30 03:13:34;;;;;;;3.63;1.00;;;12.20;99.90;;;12.52;100.00;100639.16;4954014;28;20727;-66
2021/12/30 03:16:15;;;;;;;2.00;1.00;;;12.20;99.90;;;12.52;100.00;100639.16;4952752;29;20620;-66
2021/12/30 03:18:45;;;;;;;3.20;0.90;;;12.20;99.90;;;12.54;100.00;100635.47;4922831;29;20635;-67
2021/12/30 03:21:15;;;;;;;1.70;0.70;;;12.20;99.90;;;12.56;100.00;100628.31;4953951;28;21072;-66
2021/12/30 03:23:42;;;;;;;1.73;1.00;;;12.20;99.90;;;12.58;100.00;100634.28;4961703;28;20667;-67
2021/12/30 03:26:10;;;;;;;0.70;0.70;;;12.30;99.90;;;12.59;100.00;100627.22;4971467;28;20739;-66
2021/12/30 03:28:40;;;;;;;0.83;0.83;;;12.30;99.90;;;12.56;100.00;100623.09;4937210;29;20691;-66
2021/12/30 03:31:13;;;;;;;1.70;0.93;;;12.20;99.90;;;12.54;100.00;100630.22;4954511;29;21198;-66
2021/12/30 03:33:41;;;;;;;0.80;0.80;;;12.20;99.90;;;12.51;100.00;100634.84;4954050;28;21250;-66
2021/12/30 03:36:10;;;;;;;3.07;0.97;;;12.20;99.90;;;12.46;100.00;100616.91;4952010;29;20647;-64
2021/12/30 03:38:41;;;;;;;1.10;1.10;;;12.10;99.90;;;12.42;100.00;100618.94;4954327;29;20620;-66
2021/12/30 03:41:12;;;;;;;0.87;0.87;;;12.10;99.90;;;12.42;100.00;100632.03;4952321;29;20627;-67
2021/12/30 03:43:40;;;;;;;1.50;1.30;;;12.10;99.90;;;12.40;100.00;100631.31;4899880;29;1078083;-66
2021/12/30 03:46:08;;;;;;;0.80;0.80;;;12.10;99.90;;;12.44;100.00;100629.28;4954574;29;20644;-66
2021/12/30 03:48:41;;;;;;;1.07;1.00;;;12.10;99.90;;;12.45;100.00;100631.81;4953928;29;20740;-66
2021/12/30 03:51:14;;;;;;;1.40;1.30;;;12.10;99.90;;;12.49;100.00;100637.59;4961981;28;20674;-66
2021/12/30 03:53:42;;;;;;;1.07;1.03;;;12.20;99.90;;;12.55;100.00;100626.66;4967695;28;20657;-66
2021/12/30 03:56:12;;;;;;;0.93;0.83;;;12.20;99.90;;;12.63;100.00;100628.66;4958957;28;20702;-67
2021/12/30 03:58:41;;;;;;;2.00;0.90;;;12.30;99.90;;;12.65;100.00;100619.72;4937478;29;20686;-66
2021/12/30 04:01:12;;;;;;;1.67;1.23;;;12.30;99.90;;;12.69;100.00;100623.75;4955667;29;20612;-66
2021/12/30 04:03:40;;;;;;;2.00;0.80;;;12.40;99.90;;;12.70;100.00;100632.44;4959149;28;20663;-66
2021/12/30 04:06:07;;;;;;;1.70;1.27;;;12.40;99.90;;;12.74;100.00;100639.09;4931557;28;20633;-66
2021/12/30 04:08:34;;;;;;;1.20;1.10;;;12.40;99.90;;;12.77;100.00;100637.06;4954182;29;20616;-66
2021/12/30 04:11:02;;;;;;;1.10;1.10;;;12.40;99.90;;;12.77;100.00;100634.44;4953709;29;20667;-67
2021/12/30 04:13:30;;;;;;;2.30;1.20;;;12.40;99.90;;;12.82;100.00;100632.28;4936477;29;20742;-66
2021/12/30 04:15:57;;;;;;;0.87;0.77;;;12.50;99.90;;;12.89;100.00;100638.69;4954619;28;20653;-66
2021/12/30 04:18:24;;;;;;;0.70;0.70;;;12.60;99.90;;;12.99;100.00;100636.97;4936893;29;20632;-67
2021/12/30 04:20:51;;;;;;;0.70;0.70;;;12.70;99.90;;;13.04;100.00;100645.31;4954438;29;20627;-66
2021/12/30 04:23:18;;;;;;;0.67;0.67;;;12.70;99.90;;;13.08;100.00;100631.00;4953154;28;20660;-67
2021/12/30 04:25:45;;;;;;;0.73;0.73;;;12.80;99.90;;;13.17;100.00;100629.44;4948028;28;20636;-66
2021/12/30 04:28:12;;;;;;;1.60;0.50;;;12.80;99.90;;;13.20;100.00;100643.09;4938769;28;20707;-66
2021/12/30 04:30:39;;;;;;;0.83;0.73;;;12.90;99.90;;;13.23;100.00;100636.78;4961829;28;20620;-67
2021/12/30 04:33:06;;;;;;;2.00;0.67;;;12.90;99.90;;;13.24;100.00;100639.25;4953882;28;20672;-66
2021/12/30 04:35:33;;;;;;;0.60;0.60;;;12.90;99.90;;;13.29;100.00;100644.13;4958515;28;20658;-66
2021/12/30 04:38:00;;;;;;;0.70;0.70;;;13.00;99.90;;;13.33;100.00;100650.75;4966803;28;20650;-66
2021/12/30 04:40:28;;;;;;;0.87;0.87;;;13.00;99.90;;;13.32;100.00;100649.13;4936336;29;20638;-66
2021/12/30 04:42:55;;;;;;;0.60;0.60;;;13.00;99.90;;;13.39;100.00;100660.75;4953793;28;20620;-64
2021/12/30 04:45:25;;;;;;;0.70;0.70;;;13.10;99.90;;;13.44;100.00;100655.16;4952896;29;21016;-66
2021/12/30 04:47:52;;;;;;;0.80;0.80;;;13.10;99.90;;;13.45;100.00;100660.25;4954442;29;20627;-67
2021/12/30 04:50:19;;;;;;;1.00;1.00;;;13.10;99.90;;;13.43;100.00;100664.78;4953061;29;20644;-66
2021/12/30 04:52:46;;;;;;;0.80;0.77;;;13.10;99.90;;;13.41;100.00;100677.19;4952962;29;20763;-67
2021/12/30 04:55:13;;;;;;;0.73;0.73;;;13.10;99.90;;;13.37;100.00;100673.16;4935536;29;20659;-66
2021/12/30 04:57:40;;;;;;;1.13;1.03;;;13.00;99.90;;;13.33;100.00;100673.53;4952748;29;20675;-67
2021/12/30 05:00:12;;;;;;;0.70;0.70;;;13.00;99.90;;;13.30;100.00;100676.41;4953628;29;20976;-67
2021/12/30 05:05:25;;;;;;;0.70;0.70;;;12.90;99.90;;;13.23;100.00;100676.91;4939218;29;20711;-67
2021/12/30 05:07:52;;;;;;;3.13;0.60;;;12.90;99.90;;;13.32;100.00;100670.09;4935549;29;20748;-66
2021/12/30 05:10:19;;;;;;;2.50;0.70;;;13.00;99.90;;;13.31;100.00;100671.03;4952947;29;21046;-66
2021/12/30 05:12:46;;;;;;;0.73;0.60;;;13.00;99.90;;;13.30;100.00;100660.69;4953404;29;21389;-69
2021/12/30 05:15:13;;;;;;;0.80;0.80;;;13.00;99.90;;;13.27;100.00;100677.47;4952865;28;20656;-66
2021/12/30 05:17:41;;;;;;;0.87;0.87;;;12.90;99.90;;;13.25;100.00;100676.78;4952094;28;20723;-67
2021/12/30 05:20:09;;;;;;;0.70;0.70;;;12.90;99.90;;;13.28;100.00;100676.53;4960940;28;21091;-66
2021/12/30 05:22:36;;;;;;;0.83;0.70;;;13.00;99.90;;;13.28;100.00;100676.53;4972526;28;20615;-66
2021/12/30 05:25:04;;;;;;;0.70;0.70;;;12.90;99.90;;;13.29;100.00;100672.13;4962926;28;20659;-66
2021/12/30 05:27:31;;;;;;;1.20;0.77;;;13.00;99.90;;;13.24;100.00;100667.28;4959391;28;20731;-68
2021/12/30 05:29:58;;;;;;;0.70;0.60;;;12.90;99.90;;;13.29;100.00;100666.91;4963468;28;21019;-67
2021/12/30 05:32:24;;;;;;;1.10;1.10;;;13.00;99.90;;;13.32;100.00;100669.25;4964414;28;20686;-66
2021/12/30 05:34:51;;;;;;;0.60;0.60;;;13.00;99.90;;;13.32;100.00;100680.56;4961324;28;20750;-66
2021/12/30 05:37:18;;;;;;;0.50;0.50;;;13.00;99.90;;;13.29;100.00;100683.44;4951880;29;20731;-66
2021/12/30 05:39:45;;;;;;;0.60;0.60;;;13.00;99.90;;;13.31;100.00;100688.56;4952097;28;21239;-66
2021/12/30 05:42:12;;;;;;;0.80;0.60;;;13.00;99.90;;;13.28;100.00;100684.41;4952599;28;20664;-67
2021/12/30 05:44:40;;;;;;;0.80;0.80;;;12.90;99.90;;;13.25;100.00;100687.25;4952060;28;20674;-67
2021/12/30 05:47:08;;;;;;;0.60;0.60;;;12.90;99.90;;;13.25;100.00;100692.50;4952110;29;20651;-67
2021/12/30 05:49:35;;;;;;;0.57;0.57;;;12.90;99.90;;;13.24;100.00;100698.72;4952557;29;20719;-66
2021/12/30 05:52:02;;;;;;;3.80;0.60;;;12.90;99.90;;;13.24;100.00;100702.13;4954110;28;20689;-67
2021/12/30 05:54:29;;;;;;;0.53;0.53;;;12.90;99.90;;;13.26;100.00;100699.41;4953375;28;20693;-67
2021/12/30 05:56:56;;;;;;;0.70;0.70;;;12.90;99.90;;;13.26;100.00;100704.66;4965621;28;21016;-67
2021/12/30 05:59:22;;;;;;;0.60;0.60;;;12.90;99.90;;;13.26;100.00;100706.44;4952982;28;21263;-66
2021/12/30 06:01:50;;;;;;;0.57;0.57;;;12.90;99.90;;;13.26;100.00;100715.13;4958048;28;20986;-67
2021/12/30 06:04:17;;;;;;;0.60;0.60;;;12.90;99.90;;;13.26;100.00;100719.53;4954267;28;20635;-67
2021/12/30 06:06:44;;;;;;;0.47;0.47;;;12.90;99.90;;;13.23;100.00;100716.22;4960394;28;20644;-67
2021/12/30 06:09:11;;;;;;;3.57;0.60;;;12.90;99.90;;;13.29;100.00;100716.69;4959795;28;20631;-66
2021/12/30 06:11:38;;;;;;;0.60;0.60;;;13.00;99.90;;;13.31;100.00;100715.56;4965027;28;20659;-67
2021/12/30 06:14:05;;;;;;;0.50;0.50;;;13.00;99.90;;;13.32;100.00;100725.13;4941637;29;20655;-67
2021/12/30 06:16:33;;;;;;;0.60;0.60;;;13.00;99.90;;;13.37;100.00;100722.13;4935268;29;20639;-66
2021/12/30 06:19:02;;;;;;;0.57;0.50;;;13.10;99.90;;;13.40;100.00;100727.94;4952963;29;20651;-66
2021/12/30 06:21:29;;;;;;;0.77;0.43;;;13.10;99.90;;;13.37;100.00;100743.09;4952099;29;20646;-66
2021/12/30 06:23:56;;;;;;;0.50;0.50;;;13.00;99.90;;;13.37;100.00;100741.31;4953588;28;20702;-63
2021/12/30 06:26:23;;;;;;;2.20;0.57;;;13.00;99.90;;;13.42;100.00;100746.97;4934612;29;20624;-66
2021/12/30 06:28:50;;;;;;;0.50;0.50;;;13.10;99.90;;;13.43;100.00;100751.28;4948507;28;20643;-67
2021/12/30 06:31:17;;;;;;;1.33;0.50;;;13.10;99.90;;;13.44;100.00;100755.56;4958190;28;20628;-66
2021/12/30 06:33:45;;;;;;;0.50;0.50;;;13.10;99.90;;;13.45;100.00;100759.84;4968005;28;20651;-66
2021/12/30 06:36:11;;;;;;;0.50;0.50;;;13.10;99.90;;;13.46;100.00;100758.88;4972262;28;20620;-66
2021/12/30 06:38:39;;;;;;;0.40;0.40;;;13.20;99.90;;;13.47;100.00;100764.97;4951385;28;20623;-66
2021/12/30 06:41:07;;;;;;;0.60;0.60;;;13.10;99.90;;;13.44;100.00;100752.94;4966251;28;21254;-66
2021/12/30 06:43:35;;;;;;;0.53;0.53;;;13.10;99.90;;;13.45;100.00;100749.38;4988358;23;20723;-72
2021/12/30 06:46:05;;;;;;;0.70;0.70;;;13.10;99.90;;;13.47;100.00;100757.94;4971930;28;21101;-71
2021/12/30 06:48:32;;;;;;;0.43;0.43;;;13.10;99.90;;;13.47;100.00;100763.19;4994764;28;20621;-71
2021/12/30 06:51:00;;;;;;;0.60;0.60;;;13.10;99.90;;;13.47;100.00;100763.19;4994028;28;20644;-69
2021/12/30 06:53:27;;;;;;;0.60;0.60;;;13.10;99.90;;;13.51;100.00;100763.75;4994286;28;20670;-69
2021/12/30 06:55:54;;;;;;;0.50;0.50;;;13.20;99.90;;;13.51;100.00;100775.06;4961848;28;20612;-69
2021/12/30 06:58:21;;;;;;;0.60;0.60;;;13.20;99.90;;;13.52;100.00;100781.16;4980711;28;21143;-72
2021/12/30 07:00:50;;;;;;;0.70;0.70;;;13.20;99.90;;;13.52;100.00;100783.78;4987533;28;20679;-71
2021/12/30 07:03:17;;;;;;;0.80;0.60;;;13.20;99.90;;;13.54;100.00;100792.34;4995344;28;21186;-71
2021/12/30 07:05:44;;;;;;;0.50;0.43;;;13.20;99.90;;;13.54;100.00;100787.94;4970551;28;20717;-70
2021/12/30 07:08:11;;;;;;;4.20;0.60;;;13.20;99.90;;;13.56;100.00;100788.66;4995609;28;20616;-72
2021/12/30 07:10:43;;;;;;;0.50;0.50;;;13.20;99.90;;;13.58;100.00;100799.84;4995478;28;20983;-72
2021/12/30 07:13:10;;;;;;;0.60;0.60;;;13.20;99.90;;;13.63;100.00;100800.28;4978524;28;20688;-72
2021/12/30 07:15:37;;;;;;;0.83;0.50;;;13.30;99.90;;;13.65;100.00;100798.34;4993406;28;20606;-69
2021/12/30 07:18:04;;;;;;;0.60;0.50;;;13.30;99.90;;;13.63;100.00;100800.28;4976063;28;20636;-70
2021/12/30 07:20:31;;;;;;;0.60;0.60;;;13.30;99.90;;;13.67;100.00;100806.13;4993777;28;20633;-72
2021/12/30 07:22:58;;;;;;;0.40;0.40;;;13.30;99.90;;;13.68;100.00;100803.38;4976562;28;20610;-69
2021/12/30 07:25:25;;;;;;;0.60;0.60;;;13.40;99.90;;;13.74;100.00;100808.09;4994095;28;20658;-69
2021/12/30 07:27:54;;;;;;;0.80;0.50;;;13.40;99.90;;;13.76;100.00;100811.44;4977928;28;20605;-71
2021/12/30 07:30:25;;;;;;;0.70;0.70;;;13.50;99.90;;;13.77;100.00;100815.72;4975877;28;20741;-70
2021/12/30 07:32:52;;;;;;;0.60;0.60;;;13.40;99.90;;;13.80;100.00;100812.84;4976188;28;21026;-71
2021/12/30 07:35:25;;;;;;;0.70;0.70;;;13.50;99.90;;;13.78;100.00;100809.50;4992189;28;21276;-71
2021/12/30 07:37:52;;;;;;;0.63;0.63;;;13.40;99.90;;;13.79;100.00;100811.19;4974129;28;20711;-69
2021/12/30 07:40:20;;;;;;;0.60;0.60;;;13.50;99.90;;;13.83;100.00;100815.22;4992405;28;20640;-69
2021/12/30 07:42:47;;;;;;;0.57;0.57;;;13.50;99.90;;;13.82;100.00;100817.97;4993803;28;20614;-72
2021/12/30 07:45:14;;;;;;;0.50;0.50;;;13.50;99.90;;;13.82;100.00;100823.22;4993426;28;21252;-71
2021/12/30 07:47:41;;;;;;;0.50;0.50;;;13.50;99.90;;;13.84;100.00;100829.19;4993586;28;20649;-68
2021/12/30 07:50:10;;;;;;;0.40;0.40;;;13.50;99.90;;;13.86;100.00;100843.81;4958565;28;20954;-72
2021/12/30 07:52:37;;;;;;;0.50;0.50;;;13.50;99.90;;;13.89;100.00;100847.97;4991540;28;20753;-72
2021/12/30 07:55:10;;;;;;;0.50;0.50;;;13.50;99.90;;;13.92;100.00;100856.44;4983801;28;20649;-71
2021/12/30 07:57:37;;;;;;;0.57;0.57;;;13.60;99.90;;;14.00;100.00;100859.25;4973533;28;21189;-72
2021/12/30 08:00:09;;;;;;;0.40;0.40;;;13.70;99.90;;;14.00;100.00;100848.75;4976738;28;21164;-72
2021/12/30 08:02:36;;;;;;;0.50;0.50;;;13.70;99.90;;;14.06;100.00;100852.66;4985804;28;20630;-70
2021/12/30 08:05:04;;;;;;;0.50;0.50;;;13.70;99.90;;;14.11;100.00;100860.16;4974494;28;20664;-72
2021/12/30 08:07:31;;;;;;;0.60;0.60;;;13.80;99.90;;;14.16;100.00;100852.75;4968127;28;20705;-71
2021/12/30 08:09:57;;;;;;;0.50;0.50;;;13.90;99.90;;;14.30;100.00;100855.06;4976472;28;20614;-72
2021/12/30 08:12:24;;;;;;;0.60;0.60;;;14.00;99.90;;;14.35;100.00;100871.28;4992316;28;20669;-73
2021/12/30 08:14:51;;;;;;;0.73;0.73;;;14.00;99.90;;;14.40;100.00;100866.44;4976136;28;20653;-72
2021/12/30 08:17:18;;;;;;;0.80;0.80;;;14.10;99.90;;;14.46;100.00;100865.97;4975099;28;20634;-70
2021/12/30 08:19:45;;;;;;;4.47;2.20;;;14.10;99.90;;;14.49;100.00;100863.06;4991294;28;21201;-73
2021/12/30 08:22:12;;;;;;;0.60;0.60;;;14.20;99.90;;;14.51;100.00;100863.75;4992803;28;20634;-72
2021/12/30 08:24:42;;;;;;;0.80;0.80;;;14.20;99.90;;;14.57;100.00;100869.31;4974490;28;20654;-72
2021/12/30 08:27:13;;;;;;;0.60;0.60;;;14.30;99.90;;;14.60;100.00;100881.38;4977750;28;20757;-71
2021/12/30 08:29:42;;;;;;;0.50;0.50;;;14.30;99.90;;;14.57;100.00;100877.19;4995028;28;20640;-73
2021/12/30 08:32:11;;;;;;;0.47;0.43;;;14.30;99.90;;;14.57;100.00;100873.75;4959414;28;20666;-73
2021/12/30 08:34:43;;;;;;;0.53;0.53;;;14.30;99.90;;;14.55;100.00;100871.25;4975152;28;20678;-71
2021/12/30 08:37:11;;;;;;;0.60;0.60;;;14.20;99.90;;;14.56;100.00;100874.72;4974940;28;20630;-72
2021/12/30 08:39:42;;;;;;;0.60;0.60;;;14.30;99.90;;;14.56;100.00;100877.34;4976720;28;20634;-72
2021/12/30 08:42:27;;;;;;;0.60;0.60;;;14.30;99.90;;;14.55;100.00;100871.25;4980872;28;20992;-72
2021/12/30 08:44:58;;;;;;;0.50;0.50;;;14.20;99.90;;;14.52;100.00;100870.69;4975533;28;20753;-72
2021/12/30 08:47:27;;;;;;;0.77;0.63;;;14.20;99.90;;;14.60;100.00;100873.50;4974783;28;20705;-70
2021/12/30 08:49:55;;;;;;;0.60;0.60;;;14.30;99.90;;;14.62;100.00;100876.81;4973730;28;21247;-72
2021/12/30 08:52:25;;;;;;;0.70;0.70;;;14.30;99.90;;;14.58;100.00;100878.88;4974551;28;20661;-71
2021/12/30 08:54:55;;;;;;;1.00;0.80;;;14.30;99.90;;;14.61;100.00;100870.72;4985017;28;21004;-66
2021/12/30 08:57:24;;;;;;;0.60;0.60;;;14.30;99.90;;;14.59;100.00;100871.81;4993274;28;20709;-73
2021/12/30 08:59:51;;;;;;;0.57;0.57;;;14.30;99.90;;;14.63;100.00;100883.72;4976015;28;20622;-71
2021/12/30 09:02:18;;;;;;;0.60;0.60;;;14.30;99.90;;;14.69;100.00;100873.53;4963700;28;20649;-70
2021/12/30 09:04:46;;;;;;;1.17;0.60;;;14.40;99.90;;;14.78;100.00;100877.16;4975835;28;20658;-73
2021/12/30 09:07:16;;;;;;;0.77;0.77;;;14.50;99.90;;;14.84;100.00;100881.91;4992818;28;20605;-73
2021/12/30 09:09:44;;;;;;;0.53;0.53;;;14.60;99.90;;;14.90;100.00;100875.28;4974467;28;21074;-73
2021/12/30 09:12:12;;;;;;;1.00;1.00;;;14.60;99.90;;;14.93;100.00;100877.66;4991544;28;20666;-68
2021/12/30 09:14:39;;;;;;;0.60;0.60;;;14.70;99.90;;;14.86;100.00;100876.53;4973654;28;20658;-68
2021/12/30 09:17:06;;;;;;;0.57;0.57;;;14.60;99.90;;;14.90;100.00;100884.00;4990894;28;21265;-70
2021/12/30 09:19:34;;;;;;;0.70;0.70;;;14.60;99.90;;;14.89;100.00;100890.22;4981396;28;20636;-70
2021/12/30 09:22:01;;;;;;;0.90;0.90;;;14.60;99.90;;;14.94;100.00;100885.41;4988920;28;21181;-67
2021/12/30 09:24:28;;;;;;;0.70;0.70;;;14.60;99.90;;;15.00;100.00;100891.94;4964491;28;20658;-69
2021/12/30 09:26:55;;;;;;;0.73;0.73;;;14.70;99.90;;;15.00;100.00;100897.19;4992565;28;20622;-72
2021/12/30 09:29:22;;;;;;;1.63;0.70;;;14.70;99.90;;;14.97;100.00;100903.53;4990151;28;21224;-68
2021/12/30 09:31:51;;;;;;;0.90;0.90;;;14.70;99.90;;;15.03;100.00;100913.53;4990135;28;20692;-69
2021/12/30 09:34:20;;;;;;;1.67;1.17;;;14.70;99.90;;;15.05;100.00;100921.28;4989579;28;20678;-69
2021/12/30 09:36:47;;;;;;;0.70;0.70;;;14.80;99.90;;;15.07;100.00;100929.84;4997015;28;20610;-72
2021/12/30 09:39:16;;;;;;;0.60;0.60;;;14.80;99.90;;;15.10;100.00;100930.41;4978673;28;20630;-71
2021/12/30 09:41:45;;;;;;;0.80;0.80;;;14.80;99.90;;;15.10;100.00;100940.13;4997878;28;20708;-69
2021/12/30 09:44:17;;;;;;;0.70;0.70;;;14.80;99.90;;;15.08;100.00;100947.28;4973353;28;20670;-71
2021/12/30 09:46:45;;;;;;;1.13;1.03;;;14.80;99.90;;;15.09;100.00;100956.84;4973901;28;20664;-72
2021/12/30 09:49:17;;;;;;;0.63;0.63;;;14.80;99.90;;;15.07;100.00;100951.72;4963079;28;21074;-71
2021/12/30 09:51:46;;;;;;;2.60;0.90;;;14.80;99.90;;;15.06;100.00;100952.66;4991054;28;21208;-68
2021/12/30 09:54:13;;;;;;;0.60;0.60;;;14.70;99.90;;;15.08;100.00;100956.00;4973028;28;20674;-72
2021/12/30 09:56:41;;;;;;;1.00;0.80;;;14.80;99.90;;;15.01;100.00;100954.03;4978455;28;20712;-68
2021/12/30 09:59:09;;;;;;;0.77;0.77;;;14.70;99.90;;;15.01;100.00;100960.13;4981516;28;20664;-67
2021/12/30 10:01:58;;;;;;;0.77;0.77;;;14.60;99.90;;;14.98;100.00;100968.25;4992099;28;20753;-70
2021/12/30 10:04:31;;;;;;;0.53;0.53;;;14.70;99.90;;;15.00;100.00;100962.88;4973400;28;20662;-69
2021/12/30 10:07:00;;;;;;;0.90;0.90;;;14.70;99.90;;;15.00;100.00;100976.00;4990559;28;20733;-67
2021/12/30 10:09:50;;;;;;;0.63;0.63;;;14.70;99.90;;;14.98;100.00;100973.53;4973932;28;20615;-68
2021/12/30 10:12:44;;;;;;;0.90;0.73;;;14.60;99.90;;;15.00;100.00;100971.59;4990930;28;20652;-70
2021/12/30 10:15:11;;;;;;;0.60;0.60;;;14.70;99.90;;;14.99;100.00;100969.09;4975394;28;20638;-67
2021/12/30 10:17:38;;;;;;;0.83;0.83;;;14.70;99.90;;;14.93;100.00;100970.44;4990564;28;20634;-68
2021/12/30 10:20:24;;;;;;;0.60;0.60;;;14.60;99.90;;;15.00;100.00;100971.59;4992721;28;20622;-67